Time;durP1;ratioP1;P1;durP2;ratioP2;P2;SDS_P1;SDS_P2;PMS_P1;PMS_P2;Temp;Humidity;BMP_temperature;BMP_pressure;BME280_temperature;BME280_humidity;BME280_pressure;Samples;Min_cycle;Max_cycle;Signal;HPM_P1;HPM_P2
2021/12/19 00:00:15;;;;;;;20.70;11.63;;;;;;;-0.20;100.00;97825.25;4969339;28;20215;-80
2021/12/19 00:02:59;;;;;;;19.00;10.23;;;;;;;-0.27;100.00;97826.75;4977998;28;20201;-81
2021/12/19 00:08:39;;;;;;;19.13;9.77;;;;;;;-0.35;100.00;97831.84;4987585;28;20299;-80
2021/12/19 00:11:07;;;;;;;14.07;8.47;;;;;;;-0.40;100.00;97834.84;4984095;28;20197;-81
2021/12/19 00:13:36;;;;;;;17.47;8.97;;;;;;;-0.44;100.00;97830.78;4981818;28;20295;-81
2021/12/19 00:16:03;;;;;;;16.20;9.27;;;;;;;-0.46;100.00;97827.41;4982927;28;20212;-80
2021/12/19 00:18:30;;;;;;;17.03;9.67;;;;;;;-0.48;100.00;97830.19;4973196;28;20204;-81
2021/12/19 00:20:57;;;;;;;18.23;9.93;;;;;;;-0.48;100.00;97829.34;4970119;28;20207;-80
2021/12/19 00:23:25;;;;;;;15.37;9.17;;;;;;;-0.46;100.00;97822.94;4979999;28;20239;-81
2021/12/19 00:25:52;;;;;;;16.33;8.63;;;;;;;-0.40;100.00;97825.09;4985067;28;20263;-80
2021/12/19 00:28:19;;;;;;;14.60;9.20;;;;;;;-0.34;100.00;97818.41;4982963;28;20216;-80
2021/12/19 00:30:48;;;;;;;18.53;9.50;;;;;;;-0.26;100.00;97813.34;4989163;28;20240;-80
2021/12/19 00:33:15;;;;;;;17.27;10.03;;;;;;;-0.19;100.00;97819.84;4980836;28;20208;-80
2021/12/19 00:35:42;;;;;;;17.03;9.50;;;;;;;-0.22;100.00;97820.06;4968261;28;20204;-81
2021/12/19 00:38:09;;;;;;;22.53;11.53;;;;;;;-0.23;100.00;97814.88;4976697;28;20205;-81
2021/12/19 00:40:38;;;;;;;19.10;10.80;;;;;;;-0.18;100.00;97823.34;4962867;28;20304;-82
2021/12/19 00:43:09;;;;;;;21.20;11.23;;;;;;;-0.19;100.00;97822.47;4981034;28;20232;-81
2021/12/19 00:45:39;;;;;;;20.23;10.83;;;;;;;-0.09;100.00;97818.09;4985463;28;20236;-81
2021/12/19 00:48:10;;;;;;;19.23;11.47;;;;;;;-0.06;100.00;97823.13;4969837;28;20206;-81
2021/12/19 00:50:38;;;;;;;21.10;11.57;;;;;;;-0.06;100.00;97823.13;4986121;28;20216;-81
2021/12/19 00:53:06;;;;;;;17.97;10.67;;;;;;;-0.07;100.00;97815.28;4971615;28;20208;-81
2021/12/19 00:55:33;;;;;;;20.37;11.57;;;;;;;-0.03;100.00;97832.66;4971054;28;20208;-80
2021/12/19 00:58:01;;;;;;;18.33;10.80;;;;;;;-0.07;100.00;97815.28;4990296;28;20189;-80
2021/12/19 01:00:31;;;;;;;20.77;11.53;;;;;;;-0.08;100.00;97808.28;4969478;28;20205;-81
2021/12/19 01:02:59;;;;;;;20.20;11.27;;;;;;;-0.12;100.00;97815.69;4991057;28;20227;-80
2021/12/19 01:05:29;;;;;;;21.93;11.37;;;;;;;-0.08;100.00;97814.44;4988302;28;20226;-81
2021/12/19 01:07:57;;;;;;;25.60;12.93;;;;;;;-0.11;100.00;97809.41;4971319;28;20212;-81
2021/12/19 01:10:25;;;;;;;22.00;12.40;;;;;;;-0.11;100.00;97804.09;4967317;28;20222;-81
2021/12/19 01:12:52;;;;;;;21.77;11.17;;;;;;;-0.16;100.00;97803.63;4967506;28;20250;-81
2021/12/19 01:15:22;;;;;;;23.97;12.83;;;;;;;-0.20;100.00;97812.84;4970708;28;20215;-81
2021/12/19 01:17:51;;;;;;;23.10;12.63;;;;;;;-0.28;100.00;97799.34;4984025;28;20212;-81
2021/12/19 01:20:22;;;;;;;21.80;11.90;;;;;;;-0.28;100.00;97802.00;4974135;28;20205;-81
2021/12/19 01:22:53;;;;;;;21.87;12.47;;;;;;;-0.27;100.00;97795.75;4974527;28;20304;-81
2021/12/19 01:25:21;;;;;;;23.47;11.50;;;;;;;-0.28;100.00;97786.09;4986627;28;20234;-81
2021/12/19 01:27:48;;;;;;;21.63;12.20;;;;;;;-0.29;100.00;97789.72;4978926;28;20212;-80
2021/12/19 01:30:17;;;;;;;18.93;11.47;;;;;;;-0.30;100.00;97787.16;4968886;28;20243;-81
2021/12/19 01:32:44;;;;;;;23.70;11.73;;;;;;;-0.30;100.00;97788.03;4971790;28;20226;-82
2021/12/19 01:35:14;;;;;;;20.23;11.20;;;;;;;-0.36;100.00;97771.75;4991134;28;20294;-81
2021/12/19 01:37:42;;;;;;;22.40;11.13;;;;;;;-0.35;100.00;97774.31;4986882;28;20229;-82
2021/12/19 01:40:13;;;;;;;21.23;11.80;;;;;;;-0.32;100.00;97782.00;4995838;28;20274;-81
2021/12/19 01:42:43;;;;;;;19.53;10.83;;;;;;;-0.28;100.00;97778.13;4988390;28;20219;-80
2021/12/19 01:45:13;;;;;;;21.53;10.70;;;;;;;-0.35;100.00;97769.00;4983780;28;20317;-81
2021/12/19 01:47:40;;;;;;;23.33;10.77;;;;;;;-0.36;100.00;97766.47;4987253;28;20209;-82
2021/12/19 01:50:10;;;;;;;22.93;10.80;;;;;;;-0.46;100.00;97758.41;4988468;28;20272;-80
2021/12/19 01:52:37;;;;;;;19.83;10.57;;;;;;;-0.43;100.00;97755.53;4977286;28;20212;-79
2021/12/19 01:55:05;;;;;;;24.13;11.80;;;;;;;-0.39;100.00;97762.25;4981419;28;20259;-81
2021/12/19 01:57:34;;;;;;;22.57;11.43;;;;;;;-0.40;100.00;97765.84;4977304;28;20286;-80
2021/12/19 02:00:03;;;;;;;22.63;12.03;;;;;;;-0.46;100.00;97753.97;4970736;28;20409;-80
2021/12/19 02:02:32;;;;;;;20.90;11.53;;;;;;;-0.52;100.00;97746.50;4980946;28;20211;-81
2021/12/19 02:04:59;;;;;;;23.70;10.73;;;;;;;-0.57;100.00;97747.84;4982296;28;20225;-81
2021/12/19 02:07:28;;;;;;;18.50;10.40;;;;;;;-0.54;100.00;97755.56;4988334;28;20207;-81
2021/12/19 02:09:55;;;;;;;19.70;11.90;;;;;;;-0.64;100.00;97747.50;4989176;28;20204;-80
2021/12/19 02:12:22;;;;;;;21.50;11.57;;;;;;;-0.61;100.00;97754.38;4985567;28;20203;-82
2021/12/19 02:14:51;;;;;;;23.43;11.70;;;;;;;-0.61;100.00;97757.88;4971120;28;20212;-81
2021/12/19 02:17:18;;;;;;;22.27;11.50;;;;;;;-0.54;100.00;97752.91;4972586;28;20208;-81
2021/12/19 02:19:45;;;;;;;18.63;10.77;;;;;;;-0.47;100.00;97748.78;4977535;28;20216;-80
2021/12/19 02:22:14;;;;;;;20.30;10.70;;;;;;;-0.41;100.00;97743.78;4957453;28;20216;-80
2021/12/19 02:24:41;;;;;;;19.87;11.23;;;;;;;-0.34;100.00;97738.00;4984304;28;20251;-81
2021/12/19 02:27:08;;;;;;;19.27;10.67;;;;;;;-0.27;100.00;97736.50;4973238;28;20232;-81
2021/12/19 02:29:35;;;;;;;20.07;11.67;;;;;;;-0.25;100.00;97743.34;4971615;28;20216;-81
2021/12/19 02:32:04;;;;;;;17.13;10.50;;;;;;;-0.26;100.00;97747.00;4983111;28;20207;-80
2021/12/19 02:34:38;;;;;;;22.60;12.17;;;;;;;-0.19;100.00;97747.31;4981987;28;20212;-82
2021/12/19 02:37:11;;;;;;;21.30;11.07;;;;;;;-0.26;100.00;97756.75;4988064;28;20214;-80
2021/12/19 02:40:07;;;;;;;20.30;11.37;;;;;;;-0.34;100.00;97754.72;4971658;28;20201;-81
2021/12/19 02:48:11;;;;;;;19.63;11.10;;;;;;;-0.26;100.00;97773.53;4976585;28;20219;-81
2021/12/19 02:50:44;;;;;;;22.17;11.13;;;;;;;-0.19;100.00;97777.34;4985443;28;20290;-81
2021/12/19 02:53:12;;;;;;;19.63;11.37;;;;;;;-0.15;100.00;97767.31;4978120;28;20327;-81
2021/12/19 02:55:41;;;;;;;19.37;10.93;;;;;;;-0.14;100.00;97772.50;4966870;28;20296;-81
2021/12/19 02:58:09;;;;;;;20.10;11.13;;;;;;;-0.22;100.00;97756.38;4960228;28;20295;-80
2021/12/19 03:00:36;;;;;;;19.23;10.43;;;;;;;-0.26;100.00;97770.88;4983722;28;20268;-81
2021/12/19 03:03:03;;;;;;;21.43;11.83;;;;;;;-0.35;100.00;97763.69;4987421;28;20232;-80
2021/12/19 03:05:32;;;;;;;21.53;11.17;;;;;;;-0.30;100.00;97772.09;4983524;28;20217;-80
2021/12/19 03:08:01;;;;;;;21.93;12.20;;;;;;;-0.24;100.00;97773.38;4983338;28;20200;-80
2021/12/19 03:13:25;;;;;;;20.73;11.50;;;;;;;-0.19;100.00;97769.38;4965949;28;20215;-81
2021/12/19 03:18:39;;;;;;;23.20;11.57;;;;;;;-0.19;100.00;97766.72;4978721;28;20204;-79
2021/12/19 03:21:09;;;;;;;22.33;12.40;;;;;;;-0.24;100.00;97760.94;4979784;28;20202;-81
2021/12/19 03:23:36;;;;;;;21.37;11.67;;;;;;;-0.28;100.00;97756.88;4964724;28;20291;-80
2021/12/19 03:26:03;;;;;;;22.20;11.47;;;;;;;-0.28;100.00;97771.97;4981031;28;20216;-80
2021/12/19 03:28:32;;;;;;;23.50;12.30;;;;;;;-0.40;100.00;97755.25;4982661;28;20223;-81
2021/12/19 03:31:00;;;;;;;24.13;12.03;;;;;;;-0.37;100.00;97776.22;4986479;28;20200;-81
2021/12/19 03:33:27;;;;;;;25.23;12.30;;;;;;;-0.34;100.00;97775.97;4969825;28;20211;-80
2021/12/19 03:35:54;;;;;;;24.17;12.50;;;;;;;-0.34;100.00;97770.66;4973990;28;20208;-80
2021/12/19 03:38:21;;;;;;;20.50;10.80;;;;;;;-0.35;100.00;97779.59;4970749;28;20213;-81
2021/12/19 03:41:05;;;;;;;25.30;12.40;;;;;;;-0.36;100.00;97777.91;4976830;28;20296;-81
2021/12/19 03:43:33;;;;;;;24.00;12.20;;;;;;;-0.40;100.00;97768.50;4970153;28;20220;-81
2021/12/19 03:46:00;;;;;;;22.57;12.33;;;;;;;-0.42;100.00;97771.28;4991281;28;20295;-80
2021/12/19 03:48:28;;;;;;;23.60;11.37;;;;;;;-0.42;100.00;97765.13;4986862;28;20277;-80
2021/12/19 03:50:55;;;;;;;22.13;12.10;;;;;;;-0.47;100.00;97768.19;4988782;28;20204;-80
2021/12/19 03:53:22;;;;;;;22.37;11.37;;;;;;;-0.52;100.00;97758.94;4969309;28;20208;-81
2021/12/19 03:55:50;;;;;;;27.30;13.43;;;;;;;-0.50;100.00;97756.97;4970925;28;20268;-81
2021/12/19 03:58:18;;;;;;;22.00;11.40;;;;;;;-0.49;100.00;97756.00;4973314;28;20224;-81
2021/12/19 04:00:48;;;;;;;23.73;12.83;;;;;;;-0.52;100.00;97743.84;4989040;28;20235;-80
2021/12/19 04:03:19;;;;;;;21.97;11.73;;;;;;;-0.49;100.00;97746.25;4983002;28;20255;-80
2021/12/19 04:05:47;;;;;;;25.67;13.13;;;;;;;-0.43;100.00;97753.72;4970347;28;20235;-80
2021/12/19 04:08:15;;;;;;;24.13;12.33;;;;;;;-0.41;100.00;97748.25;4990720;28;20288;-80
2021/12/19 04:10:43;;;;;;;24.27;12.40;;;;;;;-0.44;100.00;97749.38;4959830;28;20235;-80
2021/12/19 04:13:10;;;;;;;23.30;12.40;;;;;;;-0.47;100.00;97743.47;4988035;28;20216;-80
2021/12/19 04:15:37;;;;;;;23.90;12.87;;;;;;;-0.46;100.00;97740.69;4987139;28;20208;-80
2021/12/19 04:18:06;;;;;;;23.93;11.90;;;;;;;-0.39;100.00;97746.31;4976948;28;20266;-81
2021/12/19 04:20:33;;;;;;;27.23;12.77;;;;;;;-0.34;100.00;97749.41;4969902;28;20214;-80
2021/12/19 04:23:01;;;;;;;24.00;11.90;;;;;;;-0.36;100.00;97754.03;4973854;28;20208;-80
2021/12/19 04:25:28;;;;;;;21.53;11.47;;;;;;;-0.40;100.00;97749.94;4987305;28;20228;-80
2021/12/19 04:27:55;;;;;;;23.27;11.77;;;;;;;-0.36;100.00;97754.03;4990834;28;20235;-80
2021/12/19 04:30:24;;;;;;;23.13;10.90;;;;;;;-0.37;100.00;97733.78;4968433;28;20228;-80
2021/12/19 04:32:59;;;;;;;24.50;11.80;;;;;;;-0.37;100.00;97739.06;4988128;28;20612;-80
2021/12/19 04:35:31;;;;;;;24.17;11.67;;;;;;;-0.35;100.00;97738.94;4983678;28;20257;-80
2021/12/19 04:38:38;;;;;;;23.53;11.07;;;;;;;-0.41;100.00;97724.38;4966644;28;20216;-80
2021/12/19 04:55:10;;;;;;;21.57;11.27;;;;;;;-0.54;100.00;97703.34;4913476;28;20204;-80
2021/12/19 04:57:44;;;;;;;26.73;12.67;;;;;;;-0.64;100.00;97705.06;4974649;28;20226;-81
2021/12/19 05:00:15;;;;;;;28.27;12.10;;;;;;;-0.68;100.00;97702.81;4989789;28;20336;-80
2021/12/19 05:02:49;;;;;;;22.77;10.57;;;;;;;-0.65;100.00;97686.63;4988903;28;20219;-81
2021/12/19 05:05:30;;;;;;;24.53;11.70;;;;;;;-0.65;100.00;97689.28;4971863;28;20231;-80
2021/12/19 05:16:15;;;;;;;22.07;11.53;;;;;;;-0.84;100.00;97674.03;4984601;28;20216;-80
2021/12/19 05:18:45;;;;;;;19.17;10.90;;;;;;;-0.90;100.00;97672.75;4989136;28;20259;-81
2021/12/19 05:21:16;;;;;;;21.33;10.23;;;;;;;-0.95;100.00;97667.00;4986362;28;20215;-79
2021/12/19 05:24:20;;;;;;;20.10;10.27;;;;;;;-0.90;100.00;97667.44;4973395;28;20315;-82
2021/12/19 05:26:47;;;;;;;19.70;10.10;;;;;;;-0.98;100.00;97658.44;4983838;28;20223;-80
2021/12/19 05:29:15;;;;;;;17.60;9.20;;;;;;;-0.93;100.00;97661.53;4983098;28;20211;-80
2021/12/19 05:31:43;;;;;;;16.80;10.00;;;;;;;-0.96;100.00;97652.06;4966362;28;20204;-80
2021/12/19 05:34:10;;;;;;;18.50;9.90;;;;;;;-0.88;100.00;97662.03;4972404;28;20288;-81
2021/12/19 05:47:38;;;;;;;20.07;9.43;;;;;;;-0.71;100.00;97648.19;4972438;28;20215;-81
2021/12/19 05:50:06;;;;;;;16.23;10.07;;;;;;;-0.72;100.00;97627.94;4975848;28;20225;-81
2021/12/19 05:52:34;;;;;;;16.93;8.70;;;;;;;-0.62;100.00;97636.81;4971716;28;20266;-81
2021/12/19 05:55:03;;;;;;;15.07;8.90;;;;;;;-0.74;100.00;97621.09;4986534;28;20208;-80
2021/12/19 05:57:30;;;;;;;18.10;8.67;;;;;;;-0.80;100.00;97625.09;4990457;28;20200;-82
2021/12/19 05:59:58;;;;;;;18.13;8.97;;;;;;;-0.78;100.00;97628.47;4985275;28;20267;-83
2021/12/19 06:02:26;;;;;;;15.00;7.80;;;;;;;-0.76;100.00;97623.84;4970907;28;20212;-81
2021/12/19 06:04:53;;;;;;;12.77;7.87;;;;;;;-0.64;100.00;97637.91;4990396;28;20287;-80
2021/12/19 06:07:20;;;;;;;18.40;9.37;;;;;;;-0.73;100.00;97631.56;4970697;28;20228;-80
2021/12/19 06:09:47;;;;;;;14.90;8.70;;;;;;;-0.80;100.00;97627.75;4966413;28;20521;-81
2021/12/19 06:12:15;;;;;;;16.17;9.10;;;;;;;-0.84;100.00;97623.66;4964507;28;20207;-81
2021/12/19 06:14:42;;;;;;;19.20;9.10;;;;;;;-0.89;100.00;97605.50;4988537;28;20211;-81
2021/12/19 06:17:09;;;;;;;15.47;9.43;;;;;;;-0.86;100.00;97615.88;4981977;28;20212;-80
2021/12/19 06:19:36;;;;;;;17.83;9.67;;;;;;;-0.81;100.00;97612.81;4980955;28;20204;-80
2021/12/19 06:22:05;;;;;;;17.90;9.33;;;;;;;-0.73;100.00;97625.41;4988108;28;20296;-81
2021/12/19 06:24:33;;;;;;;17.13;9.33;;;;;;;-0.74;100.00;97624.56;4980407;28;20203;-80
2021/12/19 06:27:00;;;;;;;15.47;8.83;;;;;;;-0.81;100.00;97629.56;4984323;28;20227;-81
2021/12/19 06:29:30;;;;;;;15.17;9.17;;;;;;;-0.82;100.00;97627.03;4989096;28;20196;-81
2021/12/19 06:31:58;;;;;;;15.00;8.13;;;;;;;-0.83;100.00;97628.84;4963958;28;20235;-81
2021/12/19 06:34:25;;;;;;;16.63;9.20;;;;;;;-0.92;100.00;97626.13;4979799;28;20214;-81
2021/12/19 06:36:53;;;;;;;13.57;7.93;;;;;;;-0.85;100.00;97637.91;4981805;28;20200;-80
2021/12/19 06:39:20;;;;;;;15.30;8.40;;;;;;;-0.84;100.00;97634.25;4985378;28;20215;-80
2021/12/19 06:41:47;;;;;;;17.67;9.80;;;;;;;-0.80;100.00;97641.84;4976250;28;20211;-80
2021/12/19 06:44:15;;;;;;;25.67;12.17;;;;;;;-0.71;100.00;97639.41;4975474;28;20318;-80
2021/12/19 06:46:43;;;;;;;24.00;12.03;;;;;;;-0.71;100.00;97637.59;4968191;28;20223;-80
2021/12/19 06:49:11;;;;;;;21.00;11.10;;;;;;;-0.72;100.00;97630.59;4973313;28;20213;-80
2021/12/19 06:51:38;;;;;;;19.17;9.67;;;;;;;-0.62;100.00;97635.97;4995078;28;20199;-81
2021/12/19 06:54:06;;;;;;;20.00;10.10;;;;;;;-0.66;100.00;97630.06;4972391;28;20192;-80
2021/12/19 06:56:33;;;;;;;22.73;10.50;;;;;;;-0.62;100.00;97641.28;4977410;28;20215;-81
2021/12/19 06:59:00;;;;;;;21.73;10.70;;;;;;;-0.74;100.00;97640.50;4967028;28;20272;-81
2021/12/19 07:01:27;;;;;;;19.63;9.97;;;;;;;-0.74;100.00;97637.00;4969106;28;20205;-81
2021/12/19 07:03:55;;;;;;;18.63;9.63;;;;;;;-0.82;100.00;97641.13;4989066;28;20195;-80
2021/12/19 07:06:23;;;;;;;21.30;11.27;;;;;;;-0.69;100.00;97653.38;4969247;28;20228;-81
2021/12/19 07:08:50;;;;;;;24.87;11.70;;;;;;;-0.77;100.00;97657.50;4986854;28;20224;-80
2021/12/19 07:11:17;;;;;;;21.07;11.10;;;;;;;-0.77;100.00;97654.84;4969381;28;20238;-80
2021/12/19 07:13:44;;;;;;;21.67;11.73;;;;;;;-0.84;100.00;97648.38;4983945;28;20208;-82
2021/12/19 07:16:11;;;;;;;23.17;11.13;;;;;;;-0.80;100.00;97652.47;4977968;28;20219;-80
2021/12/19 07:18:38;;;;;;;22.13;9.73;;;;;;;-0.73;100.00;97646.63;4993499;28;20208;-80
2021/12/19 07:21:08;;;;;;;19.73;10.33;;;;;;;-0.70;100.00;97657.00;4981143;28;20203;-80
2021/12/19 07:23:35;;;;;;;20.80;10.17;;;;;;;-0.69;100.00;97658.69;4992156;28;20195;-81
2021/12/19 07:26:04;;;;;;;21.40;11.47;;;;;;;-0.67;100.00;97662.03;4971232;28;20224;-80
2021/12/19 07:28:31;;;;;;;21.00;10.93;;;;;;;-0.67;100.00;97656.72;4971620;28;20255;-81
2021/12/19 07:30:58;;;;;;;19.70;10.63;;;;;;;-0.71;100.00;97652.66;4988772;28;20216;-80
2021/12/19 07:33:26;;;;;;;18.80;10.40;;;;;;;-0.71;100.00;97661.47;4970404;28;20205;-80
2021/12/19 07:35:55;;;;;;;19.83;11.13;;;;;;;-0.70;100.00;97657.84;4986860;28;20217;-82
2021/12/19 07:38:29;;;;;;;21.20;11.23;;;;;;;-0.69;100.00;97653.38;4985125;28;20303;-80
2021/12/19 07:40:58;;;;;;;20.00;11.17;;;;;;;-0.73;100.00;97654.59;4987703;28;20259;-80
2021/12/19 07:43:25;;;;;;;24.07;11.10;;;;;;;-0.62;100.00;97667.81;4988485;28;20304;-81
2021/12/19 07:45:53;;;;;;;21.60;11.53;;;;;;;-0.73;100.00;97654.59;4971905;28;20243;-81
2021/12/19 07:48:20;;;;;;;21.60;11.77;;;;;;;-0.68;100.00;97657.72;4970511;28;20231;-80
2021/12/19 07:50:47;;;;;;;22.00;11.43;;;;;;;-0.70;100.00;97657.84;4981147;28;20220;-80
2021/12/19 07:53:14;;;;;;;21.23;11.43;;;;;;;-0.77;100.00;97652.19;4980363;28;20204;-80
2021/12/19 07:55:43;;;;;;;22.60;11.20;;;;;;;-0.77;100.00;97657.50;4992177;28;20222;-80
2021/12/19 07:58:10;;;;;;;25.07;12.30;;;;;;;-0.85;100.00;97657.28;4985839;28;20208;-80
2021/12/19 08:00:38;;;;;;;25.67;12.27;;;;;;;-0.91;100.00;97652.50;4965114;28;20228;-81
2021/12/19 08:03:05;;;;;;;22.17;12.10;;;;;;;-0.93;100.00;97648.28;4970119;28;20294;-81
2021/12/19 08:05:33;;;;;;;24.70;12.20;;;;;;;-0.90;100.00;97654.19;4990377;28;20215;-81
2021/12/19 08:08:03;;;;;;;23.73;11.77;;;;;;;-0.92;100.00;97650.81;4980960;28;20239;-80
2021/12/19 08:13:17;;;;;;;24.17;11.50;;;;;;;-0.92;100.00;97642.88;4985513;28;20211;-81
2021/12/19 08:15:44;;;;;;;22.13;11.47;;;;;;;-0.88;100.00;97639.00;4981740;28;20226;-80
2021/12/19 08:18:12;;;;;;;20.03;10.83;;;;;;;-0.88;100.00;97633.69;4979725;28;20298;-80
2021/12/19 08:20:39;;;;;;;19.60;11.43;;;;;;;-0.87;100.00;97624.78;4982175;28;20210;-80
2021/12/19 08:23:06;;;;;;;21.67;11.43;;;;;;;-0.91;100.00;97612.72;4981369;28;20204;-80
2021/12/19 08:25:33;;;;;;;22.50;11.00;;;;;;;-0.88;100.00;97625.75;4984312;28;20204;-80
2021/12/19 08:28:00;;;;;;;19.20;9.87;;;;;;;-0.95;100.00;97616.63;4964816;28;20236;-80
2021/12/19 08:30:29;;;;;;;21.00;10.67;;;;;;;-0.93;100.00;97619.97;4985282;28;20212;-81
2021/12/19 08:32:58;;;;;;;18.93;10.33;;;;;;;-0.94;100.00;97610.34;4976104;28;20208;-80
2021/12/19 08:35:25;;;;;;;19.57;10.27;;;;;;;-0.95;100.00;97610.47;4966449;28;20219;-81
2021/12/19 08:37:53;;;;;;;22.20;10.33;;;;;;;-0.94;100.00;97610.34;4973001;28;20227;-80
2021/12/19 08:40:22;;;;;;;21.87;10.63;;;;;;;-0.98;100.00;97600.97;4981381;28;20234;-81
2021/12/19 08:42:49;;;;;;;28.70;12.97;;;;;;;-0.94;100.00;97606.88;4987231;28;20224;-80
2021/12/19 08:45:17;;;;;;;23.60;11.83;;;;;;;-0.94;100.00;97610.34;4966708;28;20264;-80
2021/12/19 08:47:46;;;;;;;24.23;11.03;;;;;;;-0.98;100.00;97603.63;4974887;28;20237;-80
2021/12/19 08:50:13;;;;;;;27.07;11.03;;;;;;;-0.94;100.00;97613.00;4975812;28;20208;-80
2021/12/19 08:52:42;;;;;;;24.13;11.80;;;;;;;-0.98;100.00;97616.88;4973328;28;20470;-80
2021/12/19 08:55:11;;;;;;;24.33;12.43;;;;;;;-0.96;100.00;97614.09;4985104;28;20215;-80
2021/12/19 08:57:38;;;;;;;23.70;12.27;;;;;;;-0.94;100.00;97610.34;4981613;28;20208;-80
2021/12/19 09:00:08;;;;;;;21.10;11.00;;;;;;;-0.92;100.00;97600.44;4986440;28;20291;-81
2021/12/19 09:02:36;;;;;;;22.57;11.87;;;;;;;-0.92;100.00;97604.91;4983859;28;20205;-80
2021/12/19 09:05:05;;;;;;;21.40;10.00;;;;;;;-0.88;100.00;97603.69;4956688;28;20231;-82
2021/12/19 09:07:32;;;;;;;24.90;11.37;;;;;;;-0.88;100.00;97607.19;4972216;28;20233;-81
2021/12/19 09:09:59;;;;;;;23.67;11.43;;;;;;;-0.89;100.00;97594.91;4986346;28;20216;-80
2021/12/19 09:12:27;;;;;;;24.47;11.37;;;;;;;-0.85;100.00;97603.44;4970674;28;20287;-80
2021/12/19 09:14:55;;;;;;;23.80;11.43;;;;;;;-0.78;100.00;97605.44;4969521;28;20200;-80
2021/12/19 09:17:22;;;;;;;21.73;10.90;;;;;;;-0.82;100.00;97597.88;4971681;28;20209;-80
2021/12/19 09:19:50;;;;;;;18.20;9.57;;;;;;;-0.82;100.00;97606.66;4984048;28;20260;-81
2021/12/19 09:22:18;;;;;;;19.33;10.10;;;;;;;-0.83;100.00;97610.28;4987180;28;20275;-81
2021/12/19 09:24:45;;;;;;;19.43;9.47;;;;;;;-0.84;100.00;97602.44;4968403;28;20306;-81
2021/12/19 09:27:12;;;;;;;18.10;9.37;;;;;;;-0.76;100.00;97600.84;4981765;28;20227;-81
2021/12/19 09:29:40;;;;;;;21.27;10.50;;;;;;;-0.83;100.00;97594.38;4980070;28;20251;-80
2021/12/19 09:32:07;;;;;;;20.10;9.90;;;;;;;-0.87;100.00;97600.06;4980940;28;20204;-84
2021/12/19 09:34:35;;;;;;;20.87;9.93;;;;;;;-0.85;100.00;97601.59;4972476;28;20214;-79
2021/12/19 09:37:02;;;;;;;20.70;9.83;;;;;;;-0.88;100.00;97599.22;4984401;28;20210;-81
2021/12/19 09:39:32;;;;;;;20.50;10.53;;;;;;;-0.82;100.00;97601.34;4990510;28;20280;-81
2021/12/19 09:42:06;;;;;;;18.73;9.13;;;;;;;-0.88;100.00;97590.44;4970882;28;20203;-79
2021/12/19 09:44:34;;;;;;;19.17;9.70;;;;;;;-0.91;100.00;97588.88;4972208;28;20337;-79
2021/12/19 09:47:02;;;;;;;22.43;10.47;;;;;;;-0.88;100.00;97591.28;4986177;28;20217;-79
2021/12/19 09:49:29;;;;;;;18.87;10.20;;;;;;;-0.92;100.00;97573.94;4981356;28;20273;-79
2021/12/19 09:51:56;;;;;;;19.33;9.73;;;;;;;-0.75;100.00;97599.03;4984223;28;20270;-80
2021/12/19 09:54:23;;;;;;;22.43;10.87;;;;;;;-0.87;100.00;97585.00;4977452;28;20304;-79
2021/12/19 09:56:52;;;;;;;18.37;9.00;;;;;;;-0.77;100.00;97593.03;4981995;28;20291;-80
2021/12/19 09:59:21;;;;;;;18.67;9.33;;;;;;;-0.81;100.00;97588.94;4982717;28;20188;-80
2021/12/19 10:01:50;;;;;;;20.33;9.23;;;;;;;-0.79;100.00;97585.19;4986252;28;20204;-79
2021/12/19 10:04:36;;;;;;;20.43;9.63;;;;;;;-0.73;100.00;97575.03;4983882;28;20212;-79
2021/12/19 10:07:10;;;;;;;17.93;9.37;;;;;;;-0.69;100.00;97576.47;4971187;28;20303;-80
2021/12/19 10:09:42;;;;;;;17.57;9.13;;;;;;;-0.66;100.00;97579.69;4984145;28;20203;-80
2021/12/19 10:12:38;;;;;;;19.00;9.70;;;;;;;-0.65;100.00;97572.56;4987344;28;20248;-80
2021/12/19 10:15:09;;;;;;;20.37;9.67;;;;;;;-0.66;100.00;97568.22;4966801;28;20211;-80
2021/12/19 10:17:37;;;;;;;20.33;10.77;;;;;;;-0.70;100.00;97562.34;4987490;28;20207;-81
2021/12/19 10:20:06;;;;;;;19.50;9.77;;;;;;;-0.57;100.00;97552.38;4987533;28;20206;-80
2021/12/19 10:22:35;;;;;;;17.40;9.40;;;;;;;-0.50;100.00;97545.56;4976742;28;20227;-79
2021/12/19 10:25:19;;;;;;;19.33;9.70;;;;;;;-0.39;100.00;97534.00;4967127;28;20236;-80
2021/12/19 10:27:50;;;;;;;18.43;9.57;;;;;;;-0.42;100.00;97534.28;4970193;28;20237;-80
2021/12/19 10:30:21;;;;;;;19.47;9.63;;;;;;;-0.34;100.00;97525.66;4985041;28;20310;-80
2021/12/19 10:32:57;;;;;;;17.57;9.63;;;;;;;-0.42;100.00;97513.03;4961556;28;20203;-81
2021/12/19 10:35:27;;;;;;;17.00;9.20;;;;;;;-0.33;100.00;97517.56;4982593;28;20250;-80
2021/12/19 10:37:54;;;;;;;19.90;10.07;;;;;;;-0.31;100.00;97520.91;4984524;28;20234;-81
2021/12/19 10:40:22;;;;;;;17.10;9.27;;;;;;;-0.24;100.00;97506.13;4962780;28;20222;-80
2021/12/19 10:42:59;;;;;;;18.93;9.30;;;;;;;-0.28;100.00;97510.03;4984143;28;20212;-82
2021/12/19 10:45:29;;;;;;;20.10;10.17;;;;;;;-0.33;100.00;97506.94;4976832;28;20250;-80
2021/12/19 10:48:14;;;;;;;15.33;9.70;;;;;;;-0.33;100.00;97512.25;4975993;28;20232;-81
2021/12/19 10:50:47;;;;;;;17.97;9.33;;;;;;;-0.31;100.00;97506.81;4964364;28;20214;-82
2021/12/19 10:53:15;;;;;;;20.20;10.47;;;;;;;-0.23;100.00;97491.03;4986716;28;20212;-80
2021/12/19 10:55:45;;;;;;;15.80;8.77;;;;;;;-0.13;100.00;97481.28;4988336;28;20220;-80
2021/12/19 10:58:30;;;;;;;15.77;9.03;;;;;;;-0.17;100.00;97475.41;4985338;28;20295;-80
2021/12/19 11:01:14;;;;;;;18.60;9.43;;;;;;;-0.09;100.00;97464.97;4982379;28;20236;-79
2021/12/19 11:03:47;;;;;;;20.87;9.67;;;;;;;-0.03;100.00;97455.59;4976855;28;20220;-79
2021/12/19 11:06:25;;;;;;;18.13;8.77;;;;;;;0.04;100.00;97455.88;4992618;28;20212;-80
2021/12/19 11:08:58;;;;;;;15.97;8.53;;;;;;;0.05;100.00;97454.91;4987475;28;20231;-79
2021/12/19 11:11:41;;;;;;;15.43;8.13;;;;;;;0.04;100.00;97446.09;4987644;28;20546;-80
2021/12/19 11:14:13;;;;;;;15.73;8.70;;;;;;;-0.04;100.00;97443.31;4979395;28;20410;-79
2021/12/19 11:16:40;;;;;;;15.53;8.87;;;;;;;-0.05;100.00;97441.63;4973882;28;20211;-79
2021/12/19 11:19:08;;;;;;;14.73;8.47;;;;;;;-0.10;100.00;97434.09;4974114;28;20216;-79
2021/12/19 11:24:24;;;;;;;17.07;8.80;;;;;;;-0.28;100.00;97418.97;4955118;28;20213;-82
2021/12/19 11:26:53;;;;;;;18.63;9.03;;;;;;;-0.27;100.00;97428.59;4959191;28;20201;-80
2021/12/19 11:29:23;;;;;;;21.90;8.83;;;;;;;-0.24;100.00;97418.53;4952210;28;20237;-84
2021/12/19 11:31:57;;;;;;;16.20;9.13;;;;;;;-0.17;100.00;97410.88;4947513;28;20224;-82
2021/12/19 11:34:29;;;;;;;16.30;8.77;;;;;;;-0.10;100.00;97396.91;4970568;23;20232;-86
2021/12/19 11:37:01;;;;;;;17.17;9.07;;;;;;;-0.03;100.00;97403.34;4929533;29;20266;-86
2021/12/19 11:39:32;;;;;;;19.90;9.17;;;;;;;0.06;100.00;97387.56;4932663;29;20220;-85
2021/12/19 11:42:10;;;;;;;17.17;9.40;;;;;;;0.24;100.00;97404.47;4935135;29;20202;-86
2021/12/19 11:44:47;;;;;;;17.43;10.20;;;;;;;0.39;100.00;97403.06;4933000;29;20212;-85
2021/12/19 11:47:34;;;;;;;16.60;8.70;;;;;;;0.49;100.00;97390.59;4927246;29;20253;-85
2021/12/19 11:50:12;;;;;;;16.50;9.00;;;;;;;0.59;100.00;97386.13;4938549;28;20222;-85
2021/12/19 11:52:39;;;;;;;22.67;8.83;;;;;;;0.58;100.00;97389.75;4934588;29;20209;-85
2021/12/19 11:55:28;;;;;;;15.47;8.13;;;;;;;0.69;100.00;97380.75;4933596;28;20238;-86
2021/12/19 11:58:22;;;;;;;31.23;10.20;;;;;;;0.69;100.00;97378.09;4947974;28;20203;-86
2021/12/19 12:00:54;;;;;;;16.23;8.87;;;;;;;0.65;100.00;97377.56;4935026;29;20237;-86
2021/12/19 12:03:25;;;;;;;16.83;8.90;;;;;;;0.67;100.00;97367.63;4932555;29;20206;-86
2021/12/19 12:05:53;;;;;;;14.87;8.40;;;;;;;0.72;100.00;97373.34;4929611;29;20210;-86
2021/12/19 12:08:21;;;;;;;17.80;9.37;;;;;;;0.77;100.00;97366.75;4924563;29;20229;-85
2021/12/19 12:11:11;;;;;;;20.10;9.17;;;;;;;0.84;100.00;97373.19;4924445;29;20206;-86
2021/12/19 12:13:40;;;;;;;15.87;8.73;;;;;;;0.88;100.00;97366.56;4952095;29;20297;-88
2021/12/19 12:16:44;;;;;;;14.60;8.80;;;;;;;0.84;100.00;97363.38;4927919;29;20241;-87